Latest Weather Observations for Century Mine

IDQ60801

Issued at 9:02 am EST Sunday 19 November 2017 (issued every 30 minutes, with the page automatically refreshed every 10 minutes)

About weather observations | Map of weather stations | Latest weather observations for QLD | Other Formats
Station Details ID: 029167 Name: CENTURY MINE Lat: -18.76 Lon: 138.71 Height: 126.8 m
Data from the previous 72 hours. | See also: Recent months at Century Mine
Date/Time
EST
Temp
°C
App
Temp
°C
Dew
Point
°C
Rel
Hum
%
Delta-T
°C
Wind Press
QNH
hPa
Press
MSL
hPa
Rain since
9am
mm
Dir  Spd
km/h
Gust
km/h
Spd
kts
Gust
kts
19/09:00am 33.6 33.6 15.1 33 11.5 SSW 9 17 5 9 1010.3 1009.4 0.0
19/08:30am 32.5 32.1 15.1 35 10.8 WSW 11 19 6 10 1010.1 1009.2 0.0
19/08:00am 31.1 32.1 17.8 45 8.6 SW 9 17 5 9 1009.9 1009.0 0.0
19/07:30am 30.7 32.2 18.8 49 7.7 SW 9 13 5 7 1009.6 1008.7 0.0
19/07:00am 27.9 31.3 19.4 60 5.5 CALM 0 6 0 3 1009.3 1008.4 0.0
19/06:30am 23.4 26.9 19.5 79 2.5 CALM 0 0 0 0 1008.9 1008.0 0.0
19/06:00am 21.9 25.0 18.7 82 2.0 CALM 0 0 0 0 1008.7 1007.8 0.0
19/05:30am 22.2 24.2 18.8 81 2.2 S 6 7 3 4 1008.6 1007.7 0.0
19/05:00am 22.1 23.8 18.5 80 2.3 S 7 9 4 5 1008.5 1007.6 0.0
19/04:30am 22.5 23.8 18.5 78 2.5 S 9 11 5 6 1008.2 1007.2 0.0
19/04:00am 22.3 24.2 18.5 79 2.4 WSW 6 6 3 3 1008.0 1007.0 0.0
19/03:30am 22.5 24.7 18.3 77 2.6 SW 4 9 2 5 1007.8 1006.8 0.0
19/03:00am 22.5 24.7 18.3 77 2.6 SW 4 7 2 4 1007.7 1006.7 0.0
19/02:30am 23.6 26.5 18.3 72 3.3 CALM 0 0 0 0 1007.8 1006.8 0.0
19/02:00am 24.2 27.0 17.9 68 4.0 CALM 0 0 0 0 1008.0 1007.0 0.0
19/01:30am 24.8 25.9 17.0 62 4.9 SE 7 9 4 5 1008.1 1007.1 0.0
19/01:00am 24.9 27.3 17.1 62 4.9 CALM 0 0 0 0 1008.3 1007.4 0.0
19/12:30am 26.1 27.9 16.4 55 6.0 WNW 2 7 1 4 1008.4 1007.5 0.0
19/12:00am 27.5 27.2 15.5 48 7.4 WNW 11 13 6 7 1008.3 1007.4 0.0
 
Date/Time
EST
Temp
°C
App
Temp
°C
Dew
Point
°C
Rel
Hum
%
Delta-T
°C
Wind Press
QNH
hPa
Press
MSL
hPa
Rain since
9am
mm
Dir  Spd
km/h
Gust
km/h
Spd
kts
Gust
kts
18/11:30pm 27.3 27.5 14.7 46 7.6 NW 7 9 4 5 1008.5 1007.6 0.0
18/11:00pm 27.0 26.7 14.4 46 7.6 NW 9 13 5 7 1008.5 1007.6 0.0
18/10:30pm 25.2 27.0 17.4 62 4.9 NNE 4 9 2 5 1008.3 1007.4 0.0
18/10:00pm 25.4 27.6 16.5 58 5.5 CALM 0 6 0 3 1007.8 1006.8 0.0
18/09:30pm 26.5 28.3 15.5 50 6.7 CALM 0 0 0 0 1007.6 1006.6 0.0
18/09:00pm 26.9 27.5 15.3 49 7.1 WNW 6 7 3 4 1007.2 1006.2 0.0
18/08:30pm 28.4 29.9 14.6 43 8.4 CALM 0 4 0 2 1006.9 1005.9 0.0
18/08:00pm 31.1 30.3 12.9 32 10.9 NW 9 13 5 7 1006.6 1005.6 0.0
18/07:30pm 30.8 31.6 12.7 33 10.8 CALM 0 0 0 0 1006.3 1005.3 0.0
18/07:00pm 33.8 31.6 5.4 17 15.3 NE 6 9 3 5 1006.2 1005.2 0.0
18/06:30pm 36.1 33.7 4.4 14 17.0 ENE 6 9 3 5 1006.0 1005.0 0.0
18/06:00pm 38.3 35.4 2.7 11 18.9 NNW 7 11 4 6 1006.0 1005.0 0.0
18/05:30pm 38.9 36.0 4.4 12 18.8 NW 9 15 5 8 1006.1 1005.1 0.0
18/05:00pm 38.6 35.4 2.9 11 19.0 N 9 15 5 8 1006.1 1005.1 0.0
18/04:30pm 39.2 35.7 3.4 11 19.2 NNW 11 15 6 8 1006.3 1005.3 0.0
18/04:00pm 38.6 34.8 1.6 10 19.3 N 11 20 6 11 1006.6 1005.6 0.0
18/03:30pm 38.5 35.3 2.8 11 18.9 SE 9 13 5 7 1007.0 1006.0 0.0
18/03:00pm 38.9 35.7 3.1 11 19.1 ENE 9 17 5 9 1007.3 1006.3 0.0
18/02:30pm 38.7 35.7 4.2 12 18.7 SE 9 22 5 12 1007.8 1006.8 0.0
18/02:00pm 38.7 35.5 3.0 11 19.0 NNE 9 17 5 9 1008.3 1007.4 0.0
18/01:30pm 37.6 33.7 3.4 12 18.2 E 13 20 7 11 1008.8 1007.9 0.0
18/01:00pm 38.1 35.5 6.0 14 17.8 E 9 19 5 10 1009.3 1008.4 0.0
18/12:30pm 37.0 33.6 4.0 13 17.7 SSE 11 19 6 10 1009.7 1008.8 0.0
18/12:00pm 36.4 33.5 4.6 14 17.1 NNE 9 17 5 9 1010.1 1009.2 0.0
18/11:30am 35.5 31.3 3.9 14 16.7 ESE 15 20 8 11 1010.6 1009.7 0.0
18/11:00am 35.6 31.8 5.9 16 16.3 E 15 28 8 15 1010.9 1010.0 0.0
18/10:30am 34.8 31.1 6.2 17 15.7 E 15 22 8 12 1011.1 1010.2 0.0
18/10:00am 34.1 30.6 8.7 21 14.4 ESE 17 26 9 14 1011.4 1010.5 0.0
18/09:30am 33.6 31.1 9.6 23 13.8 SE 13 24 7 13 1011.6 1010.7 0.0
18/09:00am 33.3 31.4 11.8 27 12.8 SE 13 20 7 11 1011.4 1010.5 0.2
18/08:30am 31.2 31.6 16.4 41 9.3 SSE 9 13 5 7 1011.5 1010.6 0.2
18/08:00am 29.5 31.7 20.4 58 6.0 SSE 9 13 5 7 1011.3 1010.4 0.2
18/07:30am 28.2 30.8 21.2 65 4.7 SSE 9 13 5 7 1011.5 1010.6 0.2
18/07:00am 26.1 29.1 22.0 78 2.8 S 9 15 5 8 1011.1 1010.2 0.2
18/06:30am 24.3 28.4 22.2 88 1.4 SSE 4 11 2 6 1010.5 1009.6 0.2
18/06:00am 23.1 26.6 21.9 93 0.8 S 6 7 3 4 1010.1 1009.2 0.2
18/05:30am 22.9 27.4 21.5 92 0.9 CALM 0 0 0 0 1010.0 1009.1 0.2
18/05:00am 23.2 27.1 21.8 92 0.9 SW 4 7 2 4 1009.6 1008.7 0.2
18/04:30am 23.2 26.5 21.8 92 0.9 SSW 7 9 4 5 1009.4 1008.5 0.2
18/04:00am 23.3 26.6 21.9 92 0.9 S 7 7 4 4 1009.2 1008.3 0.2
18/03:30am 23.4 26.8 22.0 92 0.9 SSW 7 7 4 4 1009.2 1008.3 0.2
18/03:00am 23.7 27.3 22.1 91 1.1 SSW 6 7 3 4 1009.2 1008.3 0.2
18/02:30am 23.8 27.4 22.1 90 1.1 SW 6 7 3 4 1009.1 1008.2 0.2
18/02:00am 24.1 28.9 22.2 89 1.3 CALM 0 0 0 0 1009.3 1008.4 0.2
18/01:30am 24.8 29.6 22.1 85 1.8 CALM 0 0 0 0 1009.7 1008.8 0.2
18/01:00am 25.3 29.9 21.8 81 2.3 CALM 0 0 0 0 1010.0 1009.1 0.2
18/12:30am 26.1 29.3 21.7 77 2.9 NE 7 11 4 6 1010.3 1009.4 0.2
18/12:00am 26.7 29.9 21.7 74 3.4 NE 7 11 4 6 1010.5 1009.6 0.2
 
Date/Time
EST
Temp
°C
App
Temp
°C
Dew
Point
°C
Rel
Hum
%
Delta-T
°C
Wind Press
QNH
hPa
Press
MSL
hPa
Rain since
9am
mm
Dir  Spd
km/h
Gust
km/h
Spd
kts
Gust
kts
17/11:30pm 27.4 30.6 21.7 71 3.8 N 7 11 4 6 1010.7 1009.8 0.2
17/11:00pm 27.8 30.6 21.6 69 4.2 NE 9 15 5 8 1010.7 1009.8 0.2
17/10:30pm 28.5 30.0 21.3 65 4.8 NE 15 24 8 13 1010.4 1009.5 0.2
17/10:00pm 28.5 28.6 18.3 54 6.6 ENE 15 30 8 16 1010.1 1009.2 0.2
17/09:30pm 26.2 30.0 20.1 69 4.0 CALM 0 0 0 0 1009.6 1008.7 0.2
17/09:00pm 27.0 30.8 20.1 66 4.5 CALM 0 0 0 0 1009.3 1008.4 0.2
17/08:30pm 27.7 31.8 20.8 66 4.6 CALM 0 0 0 0 1009.0 1008.1 0.2
17/08:00pm 29.0 30.6 17.8 50 7.2 ESE 6 7 3 4 1008.5 1007.6 0.2
17/07:30pm 30.2 31.3 16.6 44 8.6 ESE 6 7 3 4 1008.3 1007.4 0.2
17/07:00pm 32.3 32.1 13.5 32 11.4 E 7 9 4 5 1007.9 1006.9 0.2
17/06:30pm 34.0 32.9 11.8 26 13.2 ESE 9 13 5 7 1007.6 1006.6 0.2
17/06:00pm 36.0 35.2 9.5 20 15.4 SE 4 9 2 5 1007.3 1006.3 0.2
17/05:30pm 35.9 34.7 10.2 21 15.0 ESE 7 11 4 6 1007.4 1006.4 0.2
17/05:00pm 35.5 34.2 11.2 23 14.4 ENE 9 17 5 9 1007.3 1006.3 0.2
17/04:30pm 37.0 35.4 10.3 20 15.7 ENE 9 19 5 10 1007.3 1006.3 0.2
17/04:00pm 36.6 34.0 10.7 21 15.3 E 15 26 8 14 1007.6 1006.6 0.2
17/03:30pm 37.7 35.9 10.9 20 16.0 ENE 11 20 6 11 1007.9 1006.9 0.2
17/03:00pm 36.1 34.3 11.0 22 14.9 ESE 11 22 6 12 1008.1 1007.1 0.2
17/02:30pm 37.4 36.3 9.9 19 16.1 SE 6 15 3 8 1008.6 1007.7 0.2
17/02:00pm 38.1 36.8 11.2 20 16.1 ESE 9 15 5 8 1008.8 1007.9 0.2
17/01:30pm 37.3 35.2 9.8 19 16.1 ENE 11 19 6 10 1009.1 1008.2 0.2
17/01:00pm 35.8 34.0 9.3 20 15.3 E 9 17 5 9 1009.5 1008.6 0.2
17/12:30pm 36.5 35.0 10.6 21 15.3 E 9 15 5 8 1009.9 1009.0 0.2
17/12:00pm 36.6 34.2 10.0 20 15.6 ENE 13 20 7 11 1010.3 1009.4 0.2
17/11:30am 35.3 33.0 10.4 22 14.6 ESE 13 20 7 11 1010.5 1009.6 0.2
17/11:00am 34.8 32.7 11.2 24 14.0 ESE 13 20 7 11 1010.7 1009.8 0.2
17/10:30am 35.8 34.4 13.3 26 13.8 SE 13 20 7 11 1011.1 1010.2 0.2
17/10:00am 33.7 32.4 13.7 30 12.2 ESE 13 20 7 11 1011.6 1010.7 0.2
17/09:30am 32.0 29.9 12.3 30 11.7 ESE 15 26 8 14 1011.3 1010.4 0.0
17/09:00am 31.8 31.1 14.4 34 10.7 SE 11 17 6 9 1011.8 1010.8 3.4
17/08:30am 30.3 30.2 17.0 44 8.4 SSE 13 20 7 11 1011.8 1010.8 3.4
17/08:00am 28.6 30.8 20.3 60 5.5 S 9 17 5 9 1011.5 1010.6 3.4
17/07:30am 27.9 29.8 20.5 64 4.9 S 11 17 6 9 1011.1 1010.2 3.4
17/07:00am 26.4 29.1 20.3 69 4.0 SSE 6 9 3 5 1010.5 1009.6 3.4
17/06:30am 26.1 28.3 19.7 68 4.2 S 7 13 4 7 1010.1 1009.2 3.4
17/06:00am 24.9 27.1 19.7 73 3.4 SSW 7 13 4 7 1009.8 1008.9 3.4
17/05:30am 24.2 26.8 20.1 78 2.7 SSW 6 9 3 5 1009.6 1008.7 3.4
17/05:00am 23.8 26.4 20.5 82 2.2 S 7 9 4 5 1009.5 1008.6 3.4
17/04:30am 23.9 26.7 20.4 81 2.3 SSE 6 9 3 5 1009.4 1008.5 3.4
17/04:00am 24.1 26.2 20.2 79 2.5 S 9 13 5 7 1009.1 1008.2 3.4
17/03:30am 24.0 26.6 20.5 81 2.3 S 7 11 4 6 1009.2 1008.3 3.4
17/03:00am 24.0 26.4 20.9 83 2.0 S 9 13 5 7 1009.4 1008.5 3.4
17/02:30am 24.0 27.2 21.3 85 1.8 SSW 6 7 3 4 1009.5 1008.6 3.4
17/02:00am 24.0 28.1 21.5 86 1.7 S 2 7 1 4 1009.6 1008.7 3.4
17/01:30am 24.6 27.9 20.7 79 2.6 E 4 7 2 4 1009.8 1008.9 3.4
17/01:00am 24.7 28.8 20.8 79 2.6 CALM 0 0 0 0 1010.1 1009.2 3.4
17/12:30am 24.6 26.9 19.4 73 3.4 NE 6 9 3 5 1010.3 1009.4 3.4
17/12:00am 24.8 27.7 21.1 80 2.4 NE 7 11 4 6 1010.5 1009.6 3.4
 
Date/Time
EST
Temp
°C
App
Temp
°C
Dew
Point
°C
Rel
Hum
%
Delta-T
°C
Wind Press
QNH
hPa
Press
MSL
hPa
Rain since
9am
mm
Dir  Spd
km/h
Gust
km/h
Spd
kts
Gust
kts
16/11:30pm 24.9 27.8 21.0 79 2.6 NNE 7 9 4 5 1010.5 1009.6 3.4
16/11:00pm 24.6 27.4 20.9 80 2.4 NE 7 9 4 5 1010.6 1009.7 3.4
16/10:30pm 25.4 27.9 21.1 77 2.8 N 9 13 5 7 1010.4 1009.5 3.4
16/10:00pm 25.0 25.7 20.5 76 3.0 NNW 17 20 9 11 1010.4 1009.5 3.4
16/09:30pm 25.7 27.7 21.6 78 2.7 N 13 19 7 10 1010.4 1009.5 3.4
16/09:00pm 26.1 29.5 21.7 77 2.9 N 6 11 3 6 1010.4 1009.5 3.4
16/08:30pm 25.7 29.6 21.1 76 3.0 N 2 7 1 4 1009.4 1008.5 3.4
16/08:00pm 25.0 27.4 21.5 81 2.3 NNW 11 15 6 8 1008.9 1008.0 3.2
16/07:30pm 24.4 27.0 20.1 77 2.8 NW 6 13 3 7 1008.8 1007.9 2.8
16/07:09pm 25.2 24.2 14.6 51 6.4 SSE 13 32 7 17 1008.5 1007.6 0.0
16/07:00pm 30.6 32.8 19.3 51 7.4 E 6 17 3 9 1008.2 1007.2 0.0
16/06:30pm 31.1 30.5 18.5 47 8.2 NNW 19 24 10 13 1007.0 1006.0 0.0
16/06:00pm 36.0 35.0 13.5 26 13.9 ENE 11 17 6 9 1006.3 1005.3 0.0
16/05:30pm 36.8 37.1 12.3 23 14.8 N 2 7 1 4 1005.9 1004.9 0.0
16/05:00pm 38.6 38.7 13.8 23 15.5 WNW 6 11 3 6 1006.0 1005.0 0.0
16/04:30pm 37.0 35.7 12.4 23 14.9 SE 11 17 6 9 1006.2 1005.2 0.0
16/04:00pm 37.5 37.6 12.8 22 15.1 WSW 4 9 2 5 1006.3 1005.3 0.0
16/03:30pm 37.9 37.4 13.8 23 15.0 ESE 9 19 5 10 1006.6 1005.6 0.0
16/03:00pm 37.1 35.8 11.1 21 15.5 E 9 17 5 9 1007.0 1006.0 0.0
16/02:30pm 37.1 37.3 13.2 24 14.7 ESE 4 11 2 6 1007.5 1006.5 0.0
16/02:00pm 36.3 36.1 13.7 25 14.0 S 7 15 4 8 1008.0 1007.0 0.0
16/01:30pm 35.9 34.9 13.4 26 13.8 ENE 11 19 6 10 1008.8 1007.9 0.0
16/01:00pm 35.4 35.0 14.1 28 13.2 NE 9 20 5 11 1009.3 1008.4 0.0
16/12:30pm 34.9 34.5 15.3 31 12.3 E 11 17 6 9 1009.6 1008.7 0.0
16/12:00pm 33.9 34.0 15.4 33 11.6 SE 9 17 5 9 1010.2 1009.3 0.0
16/11:30am 32.4 32.5 17.5 41 9.6 SSE 13 20 7 11 1010.6 1009.7 0.0
16/11:00am 31.6 32.9 19.2 47 8.1 S 11 15 6 8 1011.1 1010.2 0.0
16/10:30am 30.8 31.3 19.2 50 7.6 SE 15 22 8 12 1011.4 1010.5 0.0
16/10:00am 29.3 30.4 19.6 56 6.4 SSE 13 17 7 9 1011.6 1010.7 0.0
16/09:30am 27.9 28.3 19.1 58 5.7 SE 15 20 8 11 1011.8 1010.8 0.0

Other Formats:

Comma delimited format used in spreadsheet applications
http://www.bom.gov.au/fwo/IDQ60801/IDQ60801.94261.axf

JavaScript Object Notation format (JSON) in row-major order
http://www.bom.gov.au/fwo/IDQ60801/IDQ60801.94261.json